createdAt,value
2022-11-17T00:00:42.400Z,80.91
2022-11-17T00:03:15.612Z,80.90
2022-11-17T00:05:43.657Z,80.94
2022-11-17T00:08:10.313Z,81.00
2022-11-17T00:10:36.886Z,81.00
2022-11-17T00:13:22.604Z,81.01
2022-11-17T00:15:49.283Z,81.09
2022-11-17T00:18:34.423Z,81.10
2022-11-17T00:21:21.659Z,81.10
2022-11-17T00:23:49.883Z,81.15
2022-11-17T00:26:20.431Z,81.17
2022-11-17T00:28:51.287Z,81.10
2022-11-17T00:31:36.422Z,81.06
2022-11-17T00:34:06.286Z,80.97
2022-11-17T00:36:40.165Z,80.90
2022-11-17T00:39:08.534Z,80.90
2022-11-17T00:41:35.483Z,80.82
2022-11-17T00:44:02.769Z,80.80
2022-11-17T00:46:29.541Z,80.80
2022-11-17T00:48:56.235Z,80.80
2022-11-17T00:51:24.006Z,80.88
2022-11-17T00:53:51.913Z,80.78
2022-11-17T00:56:18.743Z,80.71
2022-11-17T00:58:45.442Z,80.65
2022-11-17T01:01:13.007Z,80.58
2022-11-17T01:03:39.629Z,80.43
2022-11-17T01:06:13.908Z,80.34
2022-11-17T01:08:43.377Z,80.27
2022-11-17T01:11:17.932Z,80.17
2022-11-17T01:13:47.328Z,80.19
2022-11-17T01:16:19.301Z,80.18
2022-11-17T01:18:49.239Z,80.08
2022-11-17T01:21:23.358Z,79.95
2022-11-17T01:23:52.725Z,79.86
2022-11-17T01:26:23.743Z,79.78
2022-11-17T01:28:51.448Z,79.75
2022-11-17T01:31:25.859Z,79.72
2022-11-17T01:33:53.519Z,79.70
2022-11-17T01:36:52.604Z,79.55
2022-11-17T01:39:19.234Z,79.52
2022-11-17T01:41:46.089Z,79.40
2022-11-17T01:44:50.805Z,79.39
2022-11-17T01:47:24.006Z,79.39
2022-11-17T01:50:01.274Z,79.49
2022-11-17T01:52:31.753Z,79.34
2022-11-17T01:55:00.682Z,79.35
2022-11-17T01:57:33.638Z,79.33
2022-11-17T02:00:10.363Z,79.22
2022-11-17T02:02:39.773Z,79.13
2022-11-17T02:05:22.881Z,79.19
2022-11-17T02:07:54.785Z,79.37
2022-11-17T02:10:21.807Z,79.20
2022-11-17T02:12:48.935Z,79.14
2022-11-17T02:15:15.601Z,79.00
2022-11-17T02:17:43.276Z,79.00
2022-11-17T02:20:18.166Z,78.92
2022-11-17T02:23:15.827Z,78.90
2022-11-17T02:26:42.164Z,78.82
2022-11-17T02:29:13.457Z,78.70
2022-11-17T02:32:10.970Z,78.79
2022-11-17T02:34:53.014Z,78.83
2022-11-17T02:37:35.518Z,78.80
2022-11-17T02:40:15.033Z,78.74
2022-11-17T02:43:32.957Z,78.74
2022-11-17T02:46:11.737Z,78.84
2022-11-17T02:48:53.497Z,78.84
2022-11-17T02:51:23.822Z,79.09
2022-11-17T02:53:54.528Z,79.20
2022-11-17T02:56:21.355Z,79.11
2022-11-17T02:58:53.563Z,79.16
2022-11-17T03:01:50.718Z,79.27
2022-11-17T03:04:32.101Z,79.43
2022-11-17T03:07:35.802Z,79.49
2022-11-17T03:10:21.649Z,79.55
2022-11-17T03:13:32.253Z,79.41
2022-11-17T03:16:38.887Z,79.19
2022-11-17T03:19:27.763Z,79.12
2022-11-17T03:22:06.530Z,79.18
2022-11-17T03:24:44.305Z,79.09
2022-11-17T03:27:27.020Z,79.04
2022-11-17T03:30:00.004Z,79.23
2022-11-17T03:32:32.208Z,79.21
2022-11-17T03:35:10.088Z,79.20
2022-11-17T03:37:43.095Z,79.15
2022-11-17T03:40:14.144Z,79.19
2022-11-17T03:42:46.540Z,79.25
2022-11-17T03:45:22.434Z,79.32
2022-11-17T03:48:08.433Z,79.31
2022-11-17T03:50:42.999Z,79.38
2022-11-17T03:53:09.995Z,79.42
2022-11-17T03:56:20.936Z,79.40
2022-11-17T03:59:00.038Z,79.38
2022-11-17T04:01:29.368Z,79.30
2022-11-17T04:03:56.218Z,79.35
2022-11-17T04:06:22.815Z,79.44
2022-11-17T04:08:49.710Z,79.53
2022-11-17T04:11:35.289Z,79.66
2022-11-17T04:14:20.976Z,79.76
2022-11-17T04:16:47.633Z,79.80
2022-11-17T04:19:14.267Z,79.87
2022-11-17T04:21:40.840Z,79.90
2022-11-17T04:24:08.142Z,79.90
2022-11-17T04:26:53.209Z,79.92
2022-11-17T04:29:19.924Z,79.90
2022-11-17T04:31:46.509Z,79.94
2022-11-17T04:34:13.152Z,79.90
2022-11-17T04:36:44.775Z,79.90
2022-11-17T04:39:13.959Z,79.87
2022-11-17T04:41:53.834Z,79.81
2022-11-17T04:44:26.986Z,79.73
2022-11-17T04:46:55.193Z,79.70
2022-11-17T04:49:24.394Z,79.62
2022-11-17T04:51:53.153Z,79.60
2022-11-17T04:54:24.693Z,79.60
2022-11-17T04:56:54.654Z,79.60
2022-11-17T04:59:21.575Z,79.60
2022-11-17T05:01:48.596Z,79.50
2022-11-17T05:04:39.319Z,79.46
2022-11-17T05:07:07.851Z,79.47
2022-11-17T05:09:34.854Z,79.42
2022-11-17T05:12:20.407Z,79.41
2022-11-17T05:14:49.107Z,79.49
2022-11-17T05:17:16.815Z,79.60
2022-11-17T05:19:46.388Z,79.60
2022-11-17T05:22:41.120Z,79.70
2022-11-17T05:25:08.607Z,79.62
2022-11-17T05:27:36.294Z,79.58
2022-11-17T05:30:06.510Z,79.50
2022-11-17T05:32:33.259Z,79.32
2022-11-17T05:34:59.921Z,79.30
2022-11-17T05:37:26.593Z,79.33
2022-11-17T05:39:53.276Z,79.38
2022-11-17T05:42:20.183Z,79.47
2022-11-17T05:44:48.589Z,79.55
2022-11-17T05:47:16.063Z,79.67
2022-11-17T05:49:42.656Z,79.64
2022-11-17T05:52:09.487Z,79.79
2022-11-17T05:54:39.063Z,79.90
2022-11-17T05:57:14.351Z,79.85
2022-11-17T05:59:59.638Z,79.91
2022-11-17T06:02:32.384Z,80.15
2022-11-17T06:04:58.945Z,79.91
2022-11-17T06:07:26.465Z,79.73
2022-11-17T06:09:53.446Z,79.61
2022-11-17T06:12:20.445Z,79.76
2022-11-17T06:14:47.038Z,79.89
2022-11-17T06:17:25.755Z,79.94
2022-11-17T06:20:29.869Z,80.15
2022-11-17T06:23:01.454Z,80.02
2022-11-17T06:25:29.141Z,79.96
2022-11-17T06:27:57.144Z,80.01
2022-11-17T06:30:23.725Z,80.08
2022-11-17T06:32:51.124Z,80.05
2022-11-17T06:35:18.069Z,80.20
2022-11-17T06:37:44.704Z,80.45
2022-11-17T06:40:13.390Z,80.44
2022-11-17T06:42:58.867Z,80.29
2022-11-17T06:45:26.260Z,80.16
2022-11-17T06:47:54.044Z,79.96
2022-11-17T06:50:20.924Z,79.84
2022-11-17T06:52:47.624Z,79.87
2022-11-17T06:55:14.467Z,79.82
2022-11-17T06:57:41.419Z,79.93
2022-11-17T07:00:09.782Z,79.96
2022-11-17T07:02:37.369Z,80.08
2022-11-17T07:05:05.040Z,80.20
2022-11-17T07:07:31.841Z,80.18
2022-11-17T07:09:58.598Z,80.00
2022-11-17T07:12:25.268Z,80.32
2022-11-17T07:14:52.048Z,80.50
2022-11-17T07:17:18.733Z,80.27
2022-11-17T07:19:45.352Z,80.10
2022-11-17T07:22:12.021Z,80.22
2022-11-17T07:24:39.099Z,80.39
2022-11-17T07:27:06.586Z,80.64
2022-11-17T07:29:33.383Z,80.40
2022-11-17T07:32:00.065Z,80.54
2022-11-17T07:34:26.731Z,80.49
2022-11-17T07:36:53.350Z,80.32
2022-11-17T07:39:21.797Z,80.31
2022-11-17T07:41:48.853Z,80.37
2022-11-17T07:44:15.438Z,80.53
2022-11-17T07:46:42.158Z,80.40
2022-11-17T07:49:08.752Z,80.37
2022-11-17T07:51:35.427Z,80.40
2022-11-17T07:54:02.223Z,80.19
2022-11-17T07:56:28.918Z,80.20
2022-11-17T07:58:55.695Z,80.17
2022-11-17T08:01:22.376Z,79.90
2022-11-17T08:03:49.406Z,79.91
2022-11-17T08:06:17.377Z,79.97
2022-11-17T08:08:44.114Z,80.00
2022-11-17T08:11:13.004Z,80.04
2022-11-17T08:13:41.266Z,80.24
2022-11-17T08:16:09.885Z,80.12
2022-11-17T08:18:37.621Z,80.04
2022-11-17T08:21:14.671Z,80.06
2022-11-17T08:23:42.079Z,80.10
2022-11-17T08:26:11.415Z,80.29
2022-11-17T08:28:38.858Z,80.19
2022-11-17T08:31:07.819Z,80.28
2022-11-17T08:33:35.020Z,80.36
2022-11-17T08:36:04.031Z,80.24
2022-11-17T08:38:31.200Z,79.70
2022-11-17T08:41:09.720Z,79.94
2022-11-17T08:43:37.227Z,79.55
2022-11-17T08:46:04.011Z,79.33
2022-11-17T08:48:31.724Z,79.18
2022-11-17T08:51:05.271Z,79.03
2022-11-17T08:53:31.984Z,79.14
2022-11-17T08:55:59.005Z,79.21
2022-11-17T08:58:25.639Z,79.14
2022-11-17T09:00:52.633Z,79.14
2022-11-17T09:03:19.366Z,78.65
2022-11-17T09:05:49.591Z,78.25
2022-11-17T09:08:43.853Z,77.54
2022-11-17T09:11:09.743Z,76.95
2022-11-17T09:13:37.743Z,76.88
2022-11-17T09:16:08.466Z,76.81
2022-11-17T09:18:38.672Z,76.33
2022-11-17T09:21:16.511Z,76.15
2022-11-17T09:23:43.731Z,76.08
2022-11-17T09:26:14.273Z,75.68
2022-11-17T09:28:41.381Z,74.33
2022-11-17T09:31:14.657Z,72.94
2022-11-17T09:33:42.995Z,70.93
2022-11-17T09:36:11.519Z,68.82
2022-11-17T09:38:39.961Z,66.79
2022-11-17T09:41:41.931Z,65.12
2022-11-17T09:44:39.609Z,62.23
2022-11-17T09:47:41.213Z,60.12
2022-11-17T09:50:37.855Z,58.54
2022-11-17T09:53:44.393Z,56.72
2022-11-17T09:56:13.778Z,54.69
2022-11-17T09:58:51.596Z,54.12
2022-11-17T10:01:21.863Z,54.56
2022-11-17T10:03:51.414Z,54.61
2022-11-17T10:06:22.737Z,54.28
2022-11-17T10:09:12.112Z,54.80
2022-11-17T10:11:42.418Z,55.19
2022-11-17T10:14:15.893Z,55.46
2022-11-17T10:16:53.412Z,55.78
2022-11-17T10:19:24.476Z,55.94
2022-11-17T10:22:03.882Z,55.88
2022-11-17T10:24:34.682Z,55.82
2022-11-17T10:27:23.054Z,56.33
2022-11-17T10:29:56.609Z,56.69
2022-11-17T10:32:23.350Z,56.45
2022-11-17T10:34:50.089Z,57.15
2022-11-17T10:37:32.337Z,57.66
2022-11-17T10:40:25.786Z,57.93
2022-11-17T10:43:00.036Z,57.67
2022-11-17T10:45:26.792Z,57.90
2022-11-17T10:48:10.712Z,58.55
2022-11-17T10:50:37.463Z,58.67
2022-11-17T10:53:28.417Z,58.75
2022-11-17T10:56:04.387Z,59.28
2022-11-17T10:58:33.880Z,59.28
2022-11-17T11:01:03.979Z,59.19
2022-11-17T11:03:34.862Z,58.78
2022-11-17T11:06:21.272Z,58.72
2022-11-17T11:09:01.639Z,58.92
2022-11-17T11:11:39.602Z,59.30
2022-11-17T11:14:21.362Z,58.78
2022-11-17T11:16:50.902Z,58.36
2022-11-17T11:19:20.234Z,58.34
2022-11-17T11:21:57.657Z,58.51
2022-11-17T11:24:38.878Z,58.74
2022-11-17T11:27:49.132Z,58.71
2022-11-17T11:30:18.033Z,59.06
2022-11-17T11:33:03.977Z,59.51
2022-11-17T11:36:07.823Z,59.66
2022-11-17T11:39:20.095Z,59.95
2022-11-17T11:42:15.076Z,59.80
2022-11-17T11:45:01.754Z,60.07
2022-11-17T11:47:54.417Z,60.24
2022-11-17T11:50:26.344Z,60.53
2022-11-17T11:53:11.078Z,60.88
2022-11-17T11:55:41.576Z,60.79
2022-11-17T11:58:21.498Z,60.78
2022-11-17T12:01:02.817Z,61.25
2022-11-17T12:03:50.266Z,60.92
2022-11-17T12:06:42.617Z,60.99
2022-11-17T12:10:07.255Z,59.96
2022-11-17T12:12:37.695Z,60.04
2022-11-17T12:15:19.579Z,59.77
2022-11-17T12:17:52.428Z,59.81
2022-11-17T12:20:31.379Z,59.77
2022-11-17T12:23:53.923Z,59.68
2022-11-17T12:26:30.313Z,59.50
2022-11-17T12:29:26.280Z,59.59
2022-11-17T12:32:00.322Z,59.35
2022-11-17T12:35:06.806Z,59.24
2022-11-17T12:37:33.593Z,59.48
2022-11-17T12:40:06.708Z,59.53
2022-11-17T12:42:35.077Z,59.42
2022-11-17T12:45:02.511Z,59.20
2022-11-17T12:47:39.242Z,59.18
2022-11-17T12:50:18.578Z,59.08
2022-11-17T12:53:06.577Z,59.28
2022-11-17T12:55:33.118Z,58.73
2022-11-17T12:58:25.056Z,58.80
2022-11-17T13:01:05.967Z,58.82
2022-11-17T13:04:24.669Z,58.14
2022-11-17T13:07:07.359Z,58.12
2022-11-17T13:09:36.580Z,58.60
2022-11-17T13:12:10.038Z,58.44
2022-11-17T13:14:54.768Z,58.29
2022-11-17T13:17:31.388Z,58.48
2022-11-17T13:20:04.960Z,58.45
2022-11-17T13:22:32.383Z,58.32
2022-11-17T13:25:21.057Z,58.43
2022-11-17T13:27:53.151Z,58.67
2022-11-17T13:30:29.066Z,58.80
2022-11-17T13:32:57.549Z,59.05
2022-11-17T13:35:30.168Z,58.88
2022-11-17T13:38:15.179Z,59.06
2022-11-17T13:41:08.025Z,59.47
2022-11-17T13:43:39.949Z,59.61
2022-11-17T13:46:06.913Z,59.62
2022-11-17T13:48:43.131Z,59.44
2022-11-17T13:51:42.298Z,59.77
2022-11-17T13:54:12.651Z,59.82
2022-11-17T13:56:47.741Z,59.64
2022-11-17T13:59:28.060Z,59.96
2022-11-17T14:02:16.866Z,60.02
2022-11-17T14:05:09.529Z,60.01
2022-11-17T14:07:39.305Z,60.24
2022-11-17T14:10:21.363Z,60.45
2022-11-17T14:13:20.104Z,60.51
2022-11-17T14:15:54.712Z,60.70
2022-11-17T14:18:31.745Z,60.67
2022-11-17T14:21:16.605Z,60.80
2022-11-17T14:23:45.074Z,60.97
2022-11-17T14:26:25.555Z,61.08
2022-11-17T14:28:53.201Z,61.26
2022-11-17T14:31:21.152Z,61.26
2022-11-17T14:33:47.882Z,61.28
2022-11-17T14:36:18.394Z,61.18
2022-11-17T14:38:46.653Z,61.63
2022-11-17T14:41:16.860Z,61.82
2022-11-17T14:43:44.210Z,61.82
2022-11-17T14:46:22.880Z,61.88
2022-11-17T14:48:51.221Z,62.14
2022-11-17T14:51:18.170Z,61.67
2022-11-17T14:53:47.837Z,61.76
2022-11-17T14:56:20.151Z,62.00
2022-11-17T14:58:48.705Z,62.29
2022-11-17T15:01:25.427Z,62.29
2022-11-17T15:03:53.406Z,62.39
2022-11-17T15:06:20.579Z,62.42
2022-11-17T15:08:54.832Z,62.44
2022-11-17T15:11:22.241Z,62.52
2022-11-17T15:13:50.073Z,62.69
2022-11-17T15:16:16.722Z,62.74
2022-11-17T15:18:47.813Z,62.78
2022-11-17T15:21:16.428Z,62.86
2022-11-17T15:23:43.925Z,62.99
2022-11-17T15:26:19.194Z,63.07
2022-11-17T15:28:46.067Z,63.14
2022-11-17T15:31:15.988Z,63.28
2022-11-17T15:33:45.413Z,63.32
2022-11-17T15:36:16.612Z,63.36
2022-11-17T15:38:43.536Z,63.65
2022-11-17T15:41:12.372Z,63.81
2022-11-17T15:43:41.842Z,64.20
2022-11-17T15:46:12.075Z,64.42
2022-11-17T15:48:43.237Z,64.37
2022-11-17T15:51:19.387Z,64.44
2022-11-17T15:53:48.089Z,64.48
2022-11-17T15:56:29.348Z,64.68
2022-11-17T15:59:03.096Z,65.09
2022-11-17T16:01:35.856Z,65.14
2022-11-17T16:04:08.287Z,65.18
2022-11-17T16:06:37.758Z,65.18
2022-11-17T16:09:06.532Z,65.31
2022-11-17T16:11:33.963Z,65.67
2022-11-17T16:14:01.471Z,65.92
2022-11-17T16:16:32.742Z,66.28
2022-11-17T16:18:59.628Z,66.41
2022-11-17T16:21:26.350Z,66.56
2022-11-17T16:23:56.416Z,66.77
2022-11-17T16:26:26.682Z,66.74
2022-11-17T16:29:02.335Z,67.06
2022-11-17T16:31:32.482Z,67.14
2022-11-17T16:34:01.393Z,67.10
2022-11-17T16:36:36.233Z,67.30
2022-11-17T16:39:06.608Z,67.40
2022-11-17T16:41:36.602Z,67.62
2022-11-17T16:44:09.122Z,67.61
2022-11-17T16:46:36.151Z,67.46
2022-11-17T16:49:10.040Z,67.09
2022-11-17T16:51:36.703Z,67.12
2022-11-17T16:54:06.586Z,67.21
2022-11-17T16:56:34.541Z,67.51
2022-11-17T16:59:01.899Z,67.59
2022-11-17T17:01:32.523Z,67.78
2022-11-17T17:04:02.919Z,68.02
2022-11-17T17:06:30.248Z,68.17
2022-11-17T17:08:59.986Z,68.36
2022-11-17T17:11:29.399Z,68.48
2022-11-17T17:14:00.192Z,68.58
2022-11-17T17:16:27.440Z,68.77
2022-11-17T17:18:56.957Z,69.03
2022-11-17T17:21:24.074Z,69.34
2022-11-17T17:23:51.499Z,69.61
2022-11-17T17:26:22.305Z,69.78
2022-11-17T17:28:51.638Z,70.01
2022-11-17T17:31:22.592Z,70.34
2022-11-17T17:33:51.400Z,70.42
2022-11-17T17:36:21.600Z,70.64
2022-11-17T17:38:55.052Z,71.04
2022-11-17T17:41:26.134Z,70.63
2022-11-17T17:44:04.784Z,70.74
2022-11-17T17:46:35.359Z,70.82
2022-11-17T17:49:02.332Z,70.87
2022-11-17T17:51:30.143Z,70.90
2022-11-17T17:54:01.075Z,71.06
2022-11-17T17:56:30.517Z,71.25
2022-11-17T17:58:57.702Z,71.35
2022-11-17T18:01:27.980Z,71.42
2022-11-17T18:04:04.545Z,71.57
2022-11-17T18:06:40.662Z,71.73
2022-11-17T18:09:10.619Z,71.84
2022-11-17T18:11:40.131Z,72.03
2022-11-17T18:14:06.672Z,72.18
2022-11-17T18:16:33.710Z,72.36
2022-11-17T18:19:08.080Z,72.45
2022-11-17T18:21:35.387Z,72.64
2022-11-17T18:24:03.458Z,72.55
2022-11-17T18:26:33.227Z,72.67
2022-11-17T18:29:02.403Z,72.70
2022-11-17T18:31:33.291Z,72.82
2022-11-17T18:34:16.398Z,72.94
2022-11-17T18:36:43.102Z,72.91
2022-11-17T18:39:09.832Z,73.00
2022-11-17T18:41:37.361Z,73.08
2022-11-17T18:44:05.033Z,73.09
2022-11-17T18:46:33.704Z,73.04
2022-11-17T18:49:01.210Z,73.21
2022-11-17T18:51:31.290Z,73.25
2022-11-17T18:54:00.777Z,73.29
2022-11-17T18:56:32.648Z,73.34
2022-11-17T18:58:59.474Z,73.34
2022-11-17T19:01:28.625Z,73.44
2022-11-17T19:04:00.196Z,73.50
2022-11-17T19:06:27.529Z,73.57
2022-11-17T19:08:54.677Z,73.59
2022-11-17T19:11:23.868Z,73.64
2022-11-17T19:13:53.600Z,73.69
2022-11-17T19:16:24.623Z,73.60
2022-11-17T19:18:54.268Z,73.62
2022-11-17T19:21:27.661Z,73.67
2022-11-17T19:23:58.669Z,73.71
2022-11-17T19:26:28.975Z,73.55
2022-11-17T19:29:02.440Z,73.63
2022-11-17T19:31:29.729Z,73.51
2022-11-17T19:33:57.943Z,73.54
2022-11-17T19:36:31.256Z,73.58
2022-11-17T19:39:00.462Z,73.61
2022-11-17T19:41:34.895Z,73.66
2022-11-17T19:44:05.194Z,73.69
2022-11-17T19:46:33.184Z,73.72
2022-11-17T19:49:00.231Z,73.70
2022-11-17T19:51:33.314Z,73.74
2022-11-17T19:54:06.566Z,73.81
2022-11-17T19:56:33.457Z,73.69
2022-11-17T19:59:00.172Z,73.65
2022-11-17T20:01:29.582Z,73.80
2022-11-17T20:04:00.261Z,73.82
2022-11-17T20:06:34.047Z,73.86
2022-11-17T20:09:00.862Z,73.68
2022-11-17T20:11:28.800Z,73.65
2022-11-17T20:13:56.334Z,73.64
2022-11-17T20:16:27.102Z,73.66
2022-11-17T20:18:57.163Z,73.64
2022-11-17T20:21:28.732Z,73.52
2022-11-17T20:23:56.411Z,73.45
2022-11-17T20:26:27.154Z,73.43
2022-11-17T20:28:54.421Z,73.45
2022-11-17T20:31:24.942Z,73.50
2022-11-17T20:33:56.558Z,73.51
2022-11-17T20:36:23.961Z,73.55
2022-11-17T20:38:52.962Z,73.65
2022-11-17T20:41:21.161Z,73.72
2022-11-17T20:43:53.134Z,73.86
2022-11-17T20:46:22.322Z,73.88
2022-11-17T20:48:49.711Z,74.02
2022-11-17T20:51:23.296Z,74.10
2022-11-17T20:53:50.888Z,74.11
2022-11-17T20:56:17.813Z,74.19
2022-11-17T20:58:45.455Z,74.20
2022-11-17T21:01:16.485Z,74.24
2022-11-17T21:03:45.291Z,74.32
2022-11-17T21:06:14.120Z,74.48
2022-11-17T21:08:43.003Z,74.47
2022-11-17T21:11:33.338Z,74.51
2022-11-17T21:14:00.959Z,74.60
2022-11-17T21:16:27.888Z,74.60
2022-11-17T21:18:54.547Z,74.60
2022-11-17T21:21:21.135Z,74.66
2022-11-17T21:23:47.937Z,74.62
2022-11-17T21:26:19.328Z,74.61
2022-11-17T21:28:47.115Z,74.55
2022-11-17T21:31:23.791Z,74.40
2022-11-17T21:34:16.601Z,74.55
2022-11-17T21:36:43.337Z,74.64
2022-11-17T21:39:16.621Z,74.49
2022-11-17T21:41:43.840Z,74.51
2022-11-17T21:44:13.104Z,74.64
2022-11-17T21:46:39.812Z,74.76
2022-11-17T21:49:06.403Z,74.96
2022-11-17T21:51:38.226Z,75.00
2022-11-17T21:54:08.824Z,74.95
2022-11-17T21:56:36.404Z,74.93
2022-11-17T21:59:07.145Z,74.98
2022-11-17T22:01:34.953Z,74.77
2022-11-17T22:04:02.032Z,74.66
2022-11-17T22:06:29.436Z,74.50
2022-11-17T22:08:57.122Z,74.16
2022-11-17T22:11:37.509Z,74.02
2022-11-17T22:14:14.309Z,73.99
2022-11-17T22:16:52.043Z,73.70
2022-11-17T22:19:21.836Z,73.39
2022-11-17T22:21:51.967Z,72.96
2022-11-17T22:24:19.416Z,72.81
2022-11-17T22:26:46.278Z,72.88
2022-11-17T22:29:20.639Z,72.77
2022-11-17T22:31:49.036Z,72.79
2022-11-17T22:34:17.207Z,72.76
2022-11-17T22:36:43.847Z,72.24
2022-11-17T22:39:11.115Z,72.33
2022-11-17T22:41:37.809Z,72.41
2022-11-17T22:44:04.980Z,72.69
2022-11-17T22:46:31.940Z,72.71
2022-11-17T22:48:58.779Z,72.88
2022-11-17T22:51:44.377Z,72.86
2022-11-17T22:54:11.119Z,73.08
2022-11-17T22:56:37.830Z,73.18
2022-11-17T22:59:04.680Z,73.22
2022-11-17T23:01:31.360Z,73.29
2022-11-17T23:03:58.212Z,73.38
2022-11-17T23:06:27.328Z,73.26
2022-11-17T23:08:56.027Z,73.21
2022-11-17T23:11:36.660Z,73.20
2022-11-17T23:14:11.760Z,73.43
2022-11-17T23:16:39.032Z,73.63
2022-11-17T23:19:06.724Z,73.88
2022-11-17T23:21:33.806Z,74.00
2022-11-17T23:24:00.476Z,74.29
2022-11-17T23:26:27.122Z,74.42
2022-11-17T23:28:53.942Z,74.67
2022-11-17T23:31:20.667Z,74.91
2022-11-17T23:33:48.595Z,74.93
2022-11-17T23:36:19.278Z,75.15
2022-11-17T23:38:47.514Z,75.55
2022-11-17T23:41:16.533Z,75.87
2022-11-17T23:43:43.797Z,76.12
2022-11-17T23:46:17.337Z,76.40
2022-11-17T23:48:44.869Z,76.37
2022-11-17T23:51:21.039Z,76.36
2022-11-17T23:53:49.537Z,76.46
2022-11-17T23:56:21.477Z,76.50
2022-11-17T23:58:48.727Z,76.37
